Time;durP1;ratioP1;P1;durP2;ratioP2;P2;SDS_P1;SDS_P2;PMS_P1;PMS_P2;Temp;Humidity;BMP_temperature;BMP_pressure;BME280_temperature;BME280_humidity;BME280_pressure;Samples;Min_cycle;Max_cycle;Signal;HPM_P1;HPM_P2
2023/07/16 00:01:51;;;;;;;3.72;1.70;;;;;;;;;;4944415;28;20183;-68
2023/07/16 00:04:16;;;;;;;6.32;2.42;;;;;;;;;;4947539;28;20188;-68
2023/07/16 00:06:42;;;;;;;8.18;1.98;;;;;;;;;;4948189;28;20216;-68
2023/07/16 00:09:07;;;;;;;6.53;2.72;;;;;;;;;;4952255;28;20184;-68
2023/07/16 00:11:32;;;;;;;5.63;2.53;;;;;;;;;;4948848;28;20236;-68
2023/07/16 00:13:57;;;;;;;4.43;2.05;;;;;;;;;;4949715;28;20193;-68
2023/07/16 00:16:23;;;;;;;9.43;2.95;;;;;;;;;;4948001;28;20212;-68
2023/07/16 00:18:48;;;;;;;11.73;2.63;;;;;;;;;;4950837;28;20227;-69
2023/07/16 00:21:13;;;;;;;4.72;2.03;;;;;;;;;;4952868;28;20185;-69
2023/07/16 00:23:38;;;;;;;6.05;2.55;;;;;;;;;;4951712;28;20180;-69
2023/07/16 00:26:03;;;;;;;14.82;2.72;;;;;;;;;;4971505;23;20233;-73
2023/07/16 00:28:29;;;;;;;6.75;2.42;;;;;;;;;;4953976;28;20199;-73
2023/07/16 00:30:54;;;;;;;7.50;2.80;;;;;;;;;;4958294;28;20177;-74
2023/07/16 00:33:19;;;;;;;6.88;2.80;;;;;;;;;;4954833;28;20226;-73
2023/07/16 00:35:49;;;;;;;5.18;2.35;;;;;;;;;;4959668;28;20279;-73
2023/07/16 00:38:14;;;;;;;6.85;1.90;;;;;;;;;;4939666;28;20213;-73
2023/07/16 00:40:39;;;;;;;4.00;2.05;;;;;;;;;;4943494;29;20185;-72
2023/07/16 00:43:04;;;;;;;6.32;2.00;;;;;;;;;;4941661;29;20610;-73
2023/07/16 00:45:30;;;;;;;3.85;2.10;;;;;;;;;;4940784;28;20604;-73
2023/07/16 00:47:55;;;;;;;4.70;2.00;;;;;;;;;;4943682;28;20209;-73
2023/07/16 00:50:20;;;;;;;9.38;3.25;;;;;;;;;;4940220;29;20196;-73
2023/07/16 00:52:46;;;;;;;4.35;2.15;;;;;;;;;;4936454;29;20200;-73
2023/07/16 00:55:12;;;;;;;4.68;2.13;;;;;;;;;;4937276;28;20188;-73
2023/07/16 00:57:38;;;;;;;6.03;2.70;;;;;;;;;;4935848;29;20758;-73
2023/07/16 01:00:03;;;;;;;6.07;2.67;;;;;;;;;;4934818;29;20213;-73
2023/07/16 01:02:28;;;;;;;4.97;2.10;;;;;;;;;;4939356;28;20280;-74
2023/07/16 01:04:54;;;;;;;5.15;2.53;;;;;;;;;;4933156;28;20199;-73
2023/07/16 01:07:21;;;;;;;3.85;2.40;;;;;;;;;;4935607;28;20225;-73
2023/07/16 01:09:46;;;;;;;7.65;2.55;;;;;;;;;;4943482;28;20192;-72
2023/07/16 01:12:12;;;;;;;5.55;2.67;;;;;;;;;;4936329;29;20192;-73
2023/07/16 01:14:38;;;;;;;4.53;1.95;;;;;;;;;;4941374;28;20235;-73
2023/07/16 01:17:06;;;;;;;9.05;2.90;;;;;;;;;;4937032;28;20213;-73
2023/07/16 01:19:32;;;;;;;10.68;2.78;;;;;;;;;;4935144;28;20574;-73
2023/07/16 01:22:06;;;;;;;5.60;2.35;;;;;;;;;;4936628;29;20193;-73
2023/07/16 01:24:34;;;;;;;6.38;2.17;;;;;;;;;;4934802;29;20208;-73
2023/07/16 01:27:00;;;;;;;10.60;2.72;;;;;;;;;;4934278;28;20658;-73
2023/07/16 01:29:29;;;;;;;4.55;2.63;;;;;;;;;;4934104;29;20280;-73
2023/07/16 01:31:55;;;;;;;8.10;3.28;;;;;;;;;;4942278;28;20181;-73
2023/07/16 01:34:21;;;;;;;5.80;3.10;;;;;;;;;;4940109;29;20223;-73
2023/07/16 01:36:46;;;;;;;5.97;2.55;;;;;;;;;;4939555;28;20717;-73
2023/07/16 01:39:11;;;;;;;6.90;2.42;;;;;;;;;;4937375;29;20572;-73
2023/07/16 01:41:36;;;;;;;7.65;2.85;;;;;;;;;;4936752;28;20185;-73
2023/07/16 01:44:02;;;;;;;6.40;3.08;;;;;;;;;;4939086;29;20200;-74
2023/07/16 01:46:27;;;;;;;8.25;3.05;;;;;;;;;;4939520;28;20267;-74
2023/07/16 01:48:52;;;;;;;9.07;2.75;;;;;;;;;;4935331;29;20184;-74
2023/07/16 01:51:19;;;;;;;8.32;2.95;;;;;;;;;;4937464;29;20197;-73
2023/07/16 01:53:45;;;;;;;5.82;2.60;;;;;;;;;;4934826;29;20200;-74
2023/07/16 01:56:10;;;;;;;6.13;2.90;;;;;;;;;;4940307;28;20217;-74
2023/07/16 01:58:35;;;;;;;8.13;3.45;;;;;;;;;;4939056;28;21021;-74
2023/07/16 02:01:00;;;;;;;5.82;2.90;;;;;;;;;;4939147;28;20240;-74
2023/07/16 02:03:25;;;;;;;9.35;3.35;;;;;;;;;;4938241;29;20186;-74
2023/07/16 02:05:51;;;;;;;9.60;3.20;;;;;;;;;;4940084;28;20271;-74
2023/07/16 02:08:16;;;;;;;11.43;3.17;;;;;;;;;;4941168;29;20549;-74
2023/07/16 02:10:42;;;;;;;9.25;2.83;;;;;;;;;;4939772;29;20184;-74
2023/07/16 02:13:07;;;;;;;9.32;3.33;;;;;;;;;;4935125;29;20189;-74
2023/07/16 02:15:32;;;;;;;7.57;2.95;;;;;;;;;;4942078;28;20184;-74
2023/07/16 02:17:57;;;;;;;16.25;3.53;;;;;;;;;;4940326;28;20243;-74
2023/07/16 02:20:22;;;;;;;8.05;3.78;;;;;;;;;;4943753;29;20549;-74
2023/07/16 02:22:48;;;;;;;11.10;3.25;;;;;;;;;;4937045;28;20648;-74
2023/07/16 02:25:13;;;;;;;10.07;3.28;;;;;;;;;;4939717;29;20177;-74
2023/07/16 02:27:38;;;;;;;8.43;3.80;;;;;;;;;;4936553;28;20722;-73
2023/07/16 02:30:05;;;;;;;9.15;3.72;;;;;;;;;;4936478;29;20182;-74
2023/07/16 02:32:30;;;;;;;8.48;3.20;;;;;;;;;;4937971;28;20199;-74
2023/07/16 02:34:56;;;;;;;10.95;3.15;;;;;;;;;;4937989;29;20188;-74
2023/07/16 02:37:21;;;;;;;9.18;3.70;;;;;;;;;;4936317;28;20225;-74
2023/07/16 02:39:47;;;;;;;8.80;3.15;;;;;;;;;;4937112;28;20789;-74
2023/07/16 02:42:13;;;;;;;9.43;3.60;;;;;;;;;;4938953;28;20639;-74
2023/07/16 02:44:41;;;;;;;10.90;3.25;;;;;;;;;;4938720;29;20189;-73
2023/07/16 02:47:07;;;;;;;9.75;3.80;;;;;;;;;;4934629;28;20205;-74
2023/07/16 02:49:32;;;;;;;7.10;3.30;;;;;;;;;;4937934;29;20208;-73
2023/07/16 02:51:57;;;;;;;5.60;2.97;;;;;;;;;;4939143;28;20665;-73
2023/07/16 02:54:22;;;;;;;7.28;3.35;;;;;;;;;;4940298;28;20433;-73
2023/07/16 02:56:48;;;;;;;12.60;4.05;;;;;;;;;;4940820;28;20216;-73
2023/07/16 02:59:13;;;;;;;11.55;3.10;;;;;;;;;;4941438;29;20189;-73
2023/07/16 03:01:38;;;;;;;5.72;3.35;;;;;;;;;;4941459;28;20283;-72
2023/07/16 03:04:03;;;;;;;8.45;3.00;;;;;;;;;;4941170;28;20193;-73
2023/07/16 03:06:29;;;;;;;7.15;2.42;;;;;;;;;;4942455;28;20241;-73
2023/07/16 03:08:54;;;;;;;13.07;3.35;;;;;;;;;;4942544;29;20189;-72
2023/07/16 03:11:19;;;;;;;6.40;3.55;;;;;;;;;;4940834;29;20185;-72
2023/07/16 03:13:44;;;;;;;11.02;3.38;;;;;;;;;;4940360;28;20218;-73
2023/07/16 03:16:10;;;;;;;11.95;3.72;;;;;;;;;;4939078;28;20256;-73
2023/07/16 03:18:35;;;;;;;13.70;3.53;;;;;;;;;;4940033;28;20191;-73
2023/07/16 03:21:00;;;;;;;7.38;3.13;;;;;;;;;;4940424;29;20181;-73
2023/07/16 03:23:25;;;;;;;12.05;3.75;;;;;;;;;;4939843;29;20196;-73
2023/07/16 03:25:54;;;;;;;6.25;2.95;;;;;;;;;;4941708;28;20193;-73
2023/07/16 03:28:19;;;;;;;6.50;2.97;;;;;;;;;;4940840;29;20185;-72
2023/07/16 03:30:45;;;;;;;8.80;2.67;;;;;;;;;;4939222;29;20203;-73
2023/07/16 03:33:10;;;;;;;10.23;3.10;;;;;;;;;;4939107;29;20702;-73
2023/07/16 03:35:35;;;;;;;11.10;3.63;;;;;;;;;;4937833;28;20188;-73
2023/07/16 03:38:00;;;;;;;7.85;3.22;;;;;;;;;;4938453;28;20224;-73
2023/07/16 03:40:26;;;;;;;7.50;2.63;;;;;;;;;;4939255;28;20189;-73
2023/07/16 03:42:51;;;;;;;11.13;4.07;;;;;;;;;;4936547;28;20672;-73
2023/07/16 03:45:17;;;;;;;9.07;3.58;;;;;;;;;;4939001;29;20192;-76
2023/07/16 03:47:42;;;;;;;7.72;2.95;;;;;;;;;;4933096;28;20209;-73
2023/07/16 03:50:07;;;;;;;6.45;3.28;;;;;;;;;;4936791;28;20876;-72
2023/07/16 03:52:32;;;;;;;7.93;3.60;;;;;;;;;;4936407;29;20193;-73
2023/07/16 03:54:58;;;;;;;10.38;3.47;;;;;;;;;;4938631;28;20192;-73
2023/07/16 03:57:23;;;;;;;6.25;3.70;;;;;;;;;;4938571;28;20217;-73
2023/07/16 03:59:48;;;;;;;6.65;3.35;;;;;;;;;;4939167;29;20189;-73
2023/07/16 04:02:14;;;;;;;7.28;3.85;;;;;;;;;;4939432;28;20235;-72
2023/07/16 04:04:39;;;;;;;7.40;3.80;;;;;;;;;;4941068;28;20208;-73
2023/07/16 04:07:04;;;;;;;4.72;3.42;;;;;;;;;;4943373;28;20276;-73
2023/07/16 04:09:30;;;;;;;6.10;3.40;;;;;;;;;;4944501;29;20197;-73
2023/07/16 04:11:55;;;;;;;9.05;4.75;;;;;;;;;;4941540;28;20185;-73
2023/07/16 04:14:20;;;;;;;7.85;3.95;;;;;;;;;;4942984;29;20224;-73
2023/07/16 04:16:45;;;;;;;7.22;4.25;;;;;;;;;;4942279;28;20213;-73
2023/07/16 04:19:10;;;;;;;6.28;3.65;;;;;;;;;;4943155;29;20281;-73
2023/07/16 04:21:36;;;;;;;6.85;3.45;;;;;;;;;;4943234;29;20992;-73
2023/07/16 04:24:04;;;;;;;10.95;4.15;;;;;;;;;;4942621;29;20196;-73
2023/07/16 04:26:29;;;;;;;9.40;3.60;;;;;;;;;;4941730;28;20271;-73
2023/07/16 04:28:54;;;;;;;9.38;3.60;;;;;;;;;;4940906;28;20189;-73
2023/07/16 04:31:20;;;;;;;8.95;3.88;;;;;;;;;;4942349;28;20189;-72
2023/07/16 04:33:45;;;;;;;8.40;3.42;;;;;;;;;;4941982;28;20192;-73
2023/07/16 04:36:10;;;;;;;8.82;4.30;;;;;;;;;;4942277;28;21352;-73
2023/07/16 04:38:35;;;;;;;7.88;3.88;;;;;;;;;;4936285;29;20252;-73
2023/07/16 04:41:02;;;;;;;12.98;3.88;;;;;;;;;;4940327;28;20904;-74
2023/07/16 04:43:27;;;;;;;8.85;3.63;;;;;;;;;;4939383;29;21663;-73
2023/07/16 04:45:52;;;;;;;10.02;3.90;;;;;;;;;;4942060;28;20946;-73
2023/07/16 04:48:17;;;;;;;5.38;4.03;;;;;;;;;;4941691;28;20195;-73
2023/07/16 04:50:42;;;;;;;8.00;3.22;;;;;;;;;;4942062;28;20195;-73
2023/07/16 04:53:08;;;;;;;7.38;3.38;;;;;;;;;;4941156;29;20193;-73
2023/07/16 04:55:36;;;;;;;7.70;3.38;;;;;;;;;;4942234;28;20534;-73
2023/07/16 04:58:02;;;;;;;9.13;3.60;;;;;;;;;;4942036;28;20593;-73
2023/07/16 05:00:27;;;;;;;8.68;3.53;;;;;;;;;;4941272;29;20181;-73
2023/07/16 05:02:52;;;;;;;8.57;3.97;;;;;;;;;;4941159;28;20193;-74
2023/07/16 05:05:17;;;;;;;4.50;3.47;;;;;;;;;;4941929;28;20275;-73
2023/07/16 05:07:43;;;;;;;11.35;4.07;;;;;;;;;;4942583;29;20219;-73
2023/07/16 05:10:08;;;;;;;5.45;3.65;;;;;;;;;;4944116;28;20185;-73
2023/07/16 05:12:33;;;;;;;5.00;3.13;;;;;;;;;;4942455;29;20197;-73
2023/07/16 05:14:58;;;;;;;9.48;3.50;;;;;;;;;;4943091;29;20200;-73
2023/07/16 05:17:24;;;;;;;5.00;3.60;;;;;;;;;;4943896;28;20227;-73
2023/07/16 05:19:49;;;;;;;8.07;4.55;;;;;;;;;;4942460;29;20191;-73
2023/07/16 05:22:14;;;;;;;10.18;4.57;;;;;;;;;;4940615;29;20228;-73
2023/07/16 05:24:39;;;;;;;4.45;3.25;;;;;;;;;;4940716;28;20267;-73
2023/07/16 05:27:05;;;;;;;8.52;3.75;;;;;;;;;;4944027;28;20221;-73
2023/07/16 05:29:30;;;;;;;8.48;4.35;;;;;;;;;;4943560;29;20216;-73
2023/07/16 05:31:55;;;;;;;10.13;4.05;;;;;;;;;;4932615;28;20213;-73
2023/07/16 05:34:21;;;;;;;9.23;3.70;;;;;;;;;;4942002;29;20674;-72
2023/07/16 05:36:46;;;;;;;6.65;3.65;;;;;;;;;;4942080;28;20275;-73
2023/07/16 05:39:14;;;;;;;9.25;3.78;;;;;;;;;;4943172;29;20193;-73
2023/07/16 05:41:39;;;;;;;7.35;3.63;;;;;;;;;;4939993;28;20195;-73
2023/07/16 05:44:04;;;;;;;10.73;4.68;;;;;;;;;;4940405;28;20735;-73
2023/07/16 05:46:30;;;;;;;8.57;3.58;;;;;;;;;;4942940;28;20434;-74
2023/07/16 05:48:55;;;;;;;11.30;3.60;;;;;;;;;;4941638;28;20216;-73
2023/07/16 05:51:20;;;;;;;6.95;4.32;;;;;;;;;;4943267;28;20220;-75
2023/07/16 05:53:46;;;;;;;11.60;3.80;;;;;;;;;;4938949;28;20574;-74
2023/07/16 05:56:11;;;;;;;7.63;3.97;;;;;;;;;;4943767;28;20201;-74
2023/07/16 05:58:37;;;;;;;8.23;4.15;;;;;;;;;;4941870;29;20799;-74
2023/07/16 06:01:02;;;;;;;8.68;4.85;;;;;;;;;;4936101;29;20185;-73
2023/07/16 06:03:27;;;;;;;8.40;3.97;;;;;;;;;;4940421;28;20195;-75
2023/07/16 06:05:53;;;;;;;7.22;3.55;;;;;;;;;;4943892;28;20833;-74
2023/07/16 06:08:18;;;;;;;8.77;4.10;;;;;;;;;;4942175;28;20686;-74
2023/07/16 06:10:43;;;;;;;9.48;4.00;;;;;;;;;;4942217;29;20192;-74
2023/07/16 06:13:09;;;;;;;9.38;4.05;;;;;;;;;;4942889;28;20177;-73
2023/07/16 06:15:34;;;;;;;8.05;4.25;;;;;;;;;;4942903;28;20188;-74
2023/07/16 06:17:59;;;;;;;7.95;4.45;;;;;;;;;;4943420;28;20212;-74
2023/07/16 06:20:24;;;;;;;8.75;3.75;;;;;;;;;;4944577;29;20196;-76
2023/07/16 06:22:50;;;;;;;8.10;4.75;;;;;;;;;;4943186;29;20970;-74
2023/07/16 06:25:15;;;;;;;7.85;4.28;;;;;;;;;;4942092;28;20183;-74
2023/07/16 06:27:40;;;;;;;11.23;4.90;;;;;;;;;;4969997;23;20239;-69
2023/07/16 06:30:05;;;;;;;11.48;4.93;;;;;;;;;;4970595;28;20180;-67
2023/07/16 06:32:31;;;;;;;9.18;3.60;;;;;;;;;;4969770;28;20215;-68
2023/07/16 06:34:56;;;;;;;8.40;4.20;;;;;;;;;;4968891;28;20569;-67
2023/07/16 06:37:23;;;;;;;8.45;3.47;;;;;;;;;;4969400;28;20248;-68
2023/07/16 06:39:48;;;;;;;8.68;3.33;;;;;;;;;;4968383;28;20235;-69
2023/07/16 06:42:14;;;;;;;11.95;4.20;;;;;;;;;;4970072;28;20609;-69
2023/07/16 06:44:39;;;;;;;6.18;3.67;;;;;;;;;;4965779;28;20215;-67
2023/07/16 06:47:04;;;;;;;11.40;3.67;;;;;;;;;;4969230;28;20326;-67
2023/07/16 06:49:29;;;;;;;12.57;4.45;;;;;;;;;;4969602;28;20190;-67
2023/07/16 06:51:55;;;;;;;11.57;3.92;;;;;;;;;;4969290;28;20184;-67
2023/07/16 06:54:20;;;;;;;8.10;3.83;;;;;;;;;;4968443;28;20237;-67
2023/07/16 06:56:45;;;;;;;9.73;4.13;;;;;;;;;;4967466;28;20302;-68
2023/07/16 06:59:10;;;;;;;11.73;3.47;;;;;;;;;;4967382;28;20238;-68
2023/07/16 07:01:36;;;;;;;10.07;3.97;;;;;;;;;;4963172;28;21076;-67
2023/07/16 07:04:01;;;;;;;5.53;3.85;;;;;;;;;;4967647;28;20639;-68
2023/07/16 07:06:26;;;;;;;7.57;4.57;;;;;;;;;;4968769;28;20845;-69
2023/07/16 07:08:51;;;;;;;9.43;4.22;;;;;;;;;;4968328;28;20196;-67
2023/07/16 07:11:17;;;;;;;14.00;4.50;;;;;;;;;;4968190;28;20259;-68
2023/07/16 07:13:43;;;;;;;9.13;3.55;;;;;;;;;;4968562;28;20229;-67
2023/07/16 07:16:08;;;;;;;7.70;3.92;;;;;;;;;;4968079;28;20838;-68
2023/07/16 07:18:33;;;;;;;7.60;3.80;;;;;;;;;;4968058;28;20231;-68
2023/07/16 07:20:58;;;;;;;8.57;3.78;;;;;;;;;;4979543;28;20239;-68
2023/07/16 07:23:24;;;;;;;7.30;3.45;;;;;;;;;;4967541;28;20430;-68
2023/07/16 07:25:50;;;;;;;11.95;4.80;;;;;;;;;;4968048;28;20179;-68
2023/07/16 07:28:16;;;;;;;8.90;4.55;;;;;;;;;;4967824;28;20698;-68
2023/07/16 07:30:41;;;;;;;8.00;4.53;;;;;;;;;;4967528;28;20237;-68
2023/07/16 07:33:06;;;;;;;10.70;4.32;;;;;;;;;;4968264;28;20180;-68
2023/07/16 07:35:31;;;;;;;11.38;4.47;;;;;;;;;;4968826;28;20188;-68
2023/07/16 07:37:57;;;;;;;15.73;4.50;;;;;;;;;;4968223;28;21216;-68
2023/07/16 07:40:22;;;;;;;6.28;4.10;;;;;;;;;;4970660;28;20261;-68
2023/07/16 07:42:47;;;;;;;9.77;4.22;;;;;;;;;;4971115;28;20238;-67
2023/07/16 07:45:12;;;;;;;14.40;4.20;;;;;;;;;;4968486;28;20187;-67
2023/07/16 07:47:37;;;;;;;8.25;3.90;;;;;;;;;;4972642;28;20306;-67
2023/07/16 07:50:03;;;;;;;8.48;3.92;;;;;;;;;;4972549;28;20511;-67
2023/07/16 07:52:28;;;;;;;6.70;3.75;;;;;;;;;;4972025;28;20197;-67
2023/07/16 07:54:53;;;;;;;9.82;4.20;;;;;;;;;;4972279;28;20350;-67
2023/07/16 07:57:19;;;;;;;8.30;3.90;;;;;;;;;;4972414;28;20235;-68
2023/07/16 07:59:45;;;;;;;13.02;3.95;;;;;;;;;;4972493;28;20227;-69
2023/07/16 08:02:10;;;;;;;11.75;3.92;;;;;;;;;;4970993;28;20183;-67
2023/07/16 08:04:35;;;;;;;8.27;3.50;;;;;;;;;;4971795;28;21088;-67
2023/07/16 08:07:00;;;;;;;7.50;4.50;;;;;;;;;;4972286;28;20207;-67
2023/07/16 08:09:26;;;;;;;14.73;4.55;;;;;;;;;;4972322;28;21109;-68
2023/07/16 08:11:51;;;;;;;9.77;4.07;;;;;;;;;;4972259;28;20206;-67
2023/07/16 08:14:16;;;;;;;8.33;4.53;;;;;;;;;;4971632;28;20555;-67
2023/07/16 08:16:41;;;;;;;12.75;4.88;;;;;;;;;;4972030;28;20525;-68
2023/07/16 08:19:07;;;;;;;8.88;4.38;;;;;;;;;;4973038;28;20215;-67
2023/07/16 08:21:32;;;;;;;6.45;3.80;;;;;;;;;;4972601;28;20192;-69
2023/07/16 08:23:57;;;;;;;9.68;4.45;;;;;;;;;;4971629;28;20187;-67
2023/07/16 08:26:23;;;;;;;10.10;4.25;;;;;;;;;;4971795;28;20192;-67
2023/07/16 08:28:48;;;;;;;8.43;4.80;;;;;;;;;;4971996;28;20700;-67
2023/07/16 08:31:13;;;;;;;9.00;5.28;;;;;;;;;;4970330;28;20180;-68
2023/07/16 08:33:39;;;;;;;9.10;4.30;;;;;;;;;;4972027;28;20196;-68
2023/07/16 08:36:04;;;;;;;7.15;4.53;;;;;;;;;;4972316;28;20180;-67
2023/07/16 08:38:29;;;;;;;9.23;3.95;;;;;;;;;;4969956;28;20212;-67
2023/07/16 08:40:54;;;;;;;8.27;3.95;;;;;;;;;;4971316;28;21117;-68
2023/07/16 08:43:20;;;;;;;13.30;4.78;;;;;;;;;;4971219;28;20235;-67
2023/07/16 08:45:46;;;;;;;10.27;4.00;;;;;;;;;;4970302;28;20254;-67
2023/07/16 08:48:11;;;;;;;9.70;4.75;;;;;;;;;;4971786;28;20215;-66
2023/07/16 08:50:37;;;;;;;7.65;4.40;;;;;;;;;;4970459;28;20524;-67
2023/07/16 08:53:05;;;;;;;11.43;4.00;;;;;;;;;;4969517;28;21050;-68
2023/07/16 08:55:31;;;;;;;23.70;5.22;;;;;;;;;;4970702;28;20271;-69
2023/07/16 08:57:57;;;;;;;11.77;4.43;;;;;;;;;;4971491;28;20234;-68
2023/07/16 09:00:25;;;;;;;8.45;3.92;;;;;;;;;;4970984;28;21098;-68
2023/07/16 09:02:51;;;;;;;10.90;3.95;;;;;;;;;;4965692;28;20195;-69
2023/07/16 09:05:19;;;;;;;5.85;3.53;;;;;;;;;;4972879;28;20192;-67
2023/07/16 09:07:44;;;;;;;7.30;4.30;;;;;;;;;;4973791;28;20246;-68
2023/07/16 09:10:11;;;;;;;6.22;4.18;;;;;;;;;;4974476;28;20840;-68
2023/07/16 09:12:41;;;;;;;14.35;4.70;;;;;;;;;;4972571;28;20190;-69
2023/07/16 09:15:06;;;;;;;9.15;4.32;;;;;;;;;;4974930;28;20183;-68
2023/07/16 09:17:32;;;;;;;9.52;3.20;;;;;;;;;;4974761;28;20226;-69
2023/07/16 09:19:57;;;;;;;7.20;3.75;;;;;;;;;;4974765;28;20183;-68
2023/07/16 09:22:22;;;;;;;9.68;4.25;;;;;;;;;;4973631;28;20190;-68
2023/07/16 09:24:48;;;;;;;9.00;4.32;;;;;;;;;;4974853;28;20222;-68
2023/07/16 09:27:13;;;;;;;11.45;4.25;;;;;;;;;;4973692;28;20224;-68
2023/07/16 09:29:39;;;;;;;7.88;3.78;;;;;;;;;;4971931;28;20224;-68
2023/07/16 09:32:07;;;;;;;9.00;4.13;;;;;;;;;;4971549;28;20930;-68
2023/07/16 09:34:32;;;;;;;6.75;3.88;;;;;;;;;;4972261;28;20249;-69
2023/07/16 09:36:58;;;;;;;6.70;4.00;;;;;;;;;;4971266;28;20207;-69
2023/07/16 09:39:24;;;;;;;6.53;3.70;;;;;;;;;;4972293;28;20195;-68
2023/07/16 09:41:50;;;;;;;9.95;3.97;;;;;;;;;;4971133;28;20184;-67
2023/07/16 09:44:16;;;;;;;8.60;4.63;;;;;;;;;;4972062;28;20711;-67
2023/07/16 09:46:41;;;;;;;8.80;3.72;;;;;;;;;;4977367;28;20204;-69
2023/07/16 09:49:07;;;;;;;12.35;4.47;;;;;;;;;;4972825;28;20203;-68
2023/07/16 09:51:35;;;;;;;10.20;5.10;;;;;;;;;;4970993;28;20222;-69
2023/07/16 09:54:01;;;;;;;13.48;4.53;;;;;;;;;;4971847;28;20843;-68
2023/07/16 09:56:29;;;;;;;7.30;3.95;;;;;;;;;;4971078;28;20187;-67
2023/07/16 09:58:55;;;;;;;7.47;4.72;;;;;;;;;;4971334;28;20185;-69
2023/07/16 10:01:20;;;;;;;11.93;3.58;;;;;;;;;;4969784;28;20185;-67
2023/07/16 10:03:51;;;;;;;9.35;4.20;;;;;;;;;;4964240;28;20607;-67
2023/07/16 10:06:17;;;;;;;6.90;4.05;;;;;;;;;;4970531;28;20262;-68
2023/07/16 10:08:48;;;;;;;10.98;4.20;;;;;;;;;;4968978;28;20211;-67
2023/07/16 10:11:17;;;;;;;6.40;3.95;;;;;;;;;;4969969;28;20318;-67
2023/07/16 10:13:43;;;;;;;8.25;3.63;;;;;;;;;;4970739;28;20535;-68
2023/07/16 10:16:11;;;;;;;6.35;4.15;;;;;;;;;;4970544;28;20187;-68
2023/07/16 10:18:36;;;;;;;8.85;3.88;;;;;;;;;;4970266;28;20223;-68
2023/07/16 10:21:08;;;;;;;4.28;2.97;;;;;;;;;;4970751;28;20175;-67
2023/07/16 10:23:43;;;;;;;7.50;3.67;;;;;;;;;;4969440;28;20187;-68
2023/07/16 10:26:13;;;;;;;11.20;3.60;;;;;;;;;;4970170;28;20188;-67
2023/07/16 10:28:38;;;;;;;8.75;3.53;;;;;;;;;;4969354;28;20212;-67
2023/07/16 10:31:03;;;;;;;7.22;3.53;;;;;;;;;;4968186;28;20440;-67
2023/07/16 10:33:29;;;;;;;6.90;3.58;;;;;;;;;;4962077;28;20197;-67
2023/07/16 10:35:56;;;;;;;6.10;4.03;;;;;;;;;;4969450;28;20188;-69
2023/07/16 10:38:21;;;;;;;9.93;3.85;;;;;;;;;;4968242;28;20660;-68
2023/07/16 10:40:46;;;;;;;4.07;2.58;;;;;;;;;;4969441;28;20184;-67
2023/07/16 10:43:12;;;;;;;9.98;3.03;;;;;;;;;;4967369;28;20194;-67
2023/07/16 10:45:38;;;;;;;4.97;3.00;;;;;;;;;;4970254;28;20684;-67
2023/07/16 10:48:03;;;;;;;9.27;2.85;;;;;;;;;;4968948;28;20211;-67
2023/07/16 10:50:28;;;;;;;5.13;2.80;;;;;;;;;;4965895;28;20201;-67
2023/07/16 10:52:54;;;;;;;6.65;3.33;;;;;;;;;;4968324;28;20250;-66
2023/07/16 10:55:20;;;;;;;3.65;2.28;;;;;;;;;;4963361;28;20191;-67
2023/07/16 10:57:52;;;;;;;5.78;2.80;;;;;;;;;;4966583;28;20224;-68
2023/07/16 11:00:17;;;;;;;5.00;2.40;;;;;;;;;;4969843;28;20191;-68
2023/07/16 11:02:43;;;;;;;4.38;2.45;;;;;;;;;;4967339;28;20183;-69
2023/07/16 11:05:15;;;;;;;4.57;2.22;;;;;;;;;;4968821;28;20192;-68
2023/07/16 11:07:44;;;;;;;9.65;3.70;;;;;;;;;;4968540;28;20274;-68
2023/07/16 11:10:10;;;;;;;5.28;2.17;;;;;;;;;;4968409;28;20323;-67
2023/07/16 11:12:35;;;;;;;4.05;2.08;;;;;;;;;;4968964;28;20860;-68
2023/07/16 11:15:00;;;;;;;7.95;3.03;;;;;;;;;;4968222;28;20179;-68
2023/07/16 11:17:25;;;;;;;7.47;3.33;;;;;;;;;;4968223;28;20207;-69
2023/07/16 11:19:51;;;;;;;7.63;3.42;;;;;;;;;;4967777;28;20234;-67
2023/07/16 11:22:17;;;;;;;5.95;3.15;;;;;;;;;;4967575;28;20184;-67
2023/07/16 11:24:49;;;;;;;5.40;2.83;;;;;;;;;;4967917;28;20184;-68
2023/07/16 11:27:18;;;;;;;2.80;1.95;;;;;;;;;;4963726;28;20222;-69
2023/07/16 11:29:45;;;;;;;8.30;2.42;;;;;;;;;;4951325;28;20211;-68
2023/07/16 11:32:10;;;;;;;3.60;2.13;;;;;;;;;;4950612;28;20226;-67
2023/07/16 11:34:35;;;;;;;6.63;2.75;;;;;;;;;;4949516;28;20616;-67
2023/07/16 11:37:08;;;;;;;2.65;1.67;;;;;;;;;;4949078;28;21125;-67
2023/07/16 11:39:33;;;;;;;4.40;2.05;;;;;;;;;;4950868;28;20184;-68
2023/07/16 11:41:58;;;;;;;3.85;1.52;;;;;;;;;;4950625;28;20581;-68
2023/07/16 11:44:24;;;;;;;4.13;2.45;;;;;;;;;;4949649;28;20672;-68
2023/07/16 11:46:49;;;;;;;8.23;1.88;;;;;;;;;;4959944;28;20212;-68
2023/07/16 11:49:15;;;;;;;3.72;1.83;;;;;;;;;;4966031;28;20211;-67
2023/07/16 11:51:43;;;;;;;3.30;1.60;;;;;;;;;;4964526;28;20668;-68
2023/07/16 11:54:08;;;;;;;4.28;1.45;;;;;;;;;;4967269;28;21144;-68
2023/07/16 11:56:33;;;;;;;2.30;1.70;;;;;;;;;;4965321;28;21432;-70
2023/07/16 11:58:58;;;;;;;2.95;1.20;;;;;;;;;;4958170;28;20279;-68
2023/07/16 12:01:24;;;;;;;3.00;1.33;;;;;;;;;;4950252;28;20184;-68
2023/07/16 12:03:49;;;;;;;3.17;1.30;;;;;;;;;;4949136;28;20191;-68
2023/07/16 12:06:14;;;;;;;3.95;1.48;;;;;;;;;;4949851;28;20187;-67
2023/07/16 12:08:39;;;;;;;4.57;1.45;;;;;;;;;;4948564;28;20184;-67
2023/07/16 12:11:05;;;;;;;5.38;1.83;;;;;;;;;;4947838;28;20921;-68
2023/07/16 12:13:30;;;;;;;4.47;1.58;;;;;;;;;;4947006;28;20187;-69
2023/07/16 12:15:55;;;;;;;4.45;1.85;;;;;;;;;;4952256;28;20267;-68
2023/07/16 12:18:20;;;;;;;3.83;1.50;;;;;;;;;;4950396;28;20243;-68
2023/07/16 12:20:45;;;;;;;5.78;1.88;;;;;;;;;;4948965;28;20287;-68
2023/07/16 12:23:11;;;;;;;2.72;1.55;;;;;;;;;;4948453;28;20278;-68
2023/07/16 12:25:36;;;;;;;4.28;1.40;;;;;;;;;;4952143;28;20522;-67
2023/07/16 12:28:01;;;;;;;7.13;1.77;;;;;;;;;;4968770;23;20301;-72
2023/07/16 12:30:27;;;;;;;3.53;1.20;;;;;;;;;;4956990;28;20188;-75
2023/07/16 12:32:52;;;;;;;4.25;1.40;;;;;;;;;;4956037;28;20185;-73
2023/07/16 12:35:17;;;;;;;4.80;1.47;;;;;;;;;;4956185;28;20196;-73
2023/07/16 12:37:42;;;;;;;3.88;1.73;;;;;;;;;;4950633;28;20465;-74
2023/07/16 12:40:08;;;;;;;9.17;1.33;;;;;;;;;;4940947;28;20563;-74
2023/07/16 12:42:33;;;;;;;4.88;1.20;;;;;;;;;;4942511;28;20418;-73
2023/07/16 12:44:59;;;;;;;3.53;1.20;;;;;;;;;;4941407;28;20193;-74
2023/07/16 12:47:24;;;;;;;2.97;1.38;;;;;;;;;;4938823;28;20204;-73
2023/07/16 12:49:49;;;;;;;3.47;1.45;;;;;;;;;;4939417;28;20195;-75
2023/07/16 12:52:14;;;;;;;3.90;1.47;;;;;;;;;;4937523;28;20195;-74
2023/07/16 12:54:39;;;;;;;3.80;1.20;;;;;;;;;;4939939;28;20461;-74
2023/07/16 12:57:05;;;;;;;3.85;1.25;;;;;;;;;;4941369;28;20882;-74
2023/07/16 12:59:30;;;;;;;4.68;1.13;;;;;;;;;;4940480;28;20200;-75
2023/07/16 13:01:56;;;;;;;5.82;1.42;;;;;;;;;;4940051;28;20657;-73
2023/07/16 13:04:21;;;;;;;5.47;1.23;;;;;;;;;;4938904;28;20207;-72
2023/07/16 13:06:47;;;;;;;5.03;1.73;;;;;;;;;;4938927;28;20193;-72
2023/07/16 13:09:13;;;;;;;5.43;1.45;;;;;;;;;;4938720;28;21063;-73
2023/07/16 13:11:38;;;;;;;4.05;1.08;;;;;;;;;;4941280;28;20872;-73
2023/07/16 13:14:03;;;;;;;4.27;1.77;;;;;;;;;;4937726;28;20307;-74
2023/07/16 13:16:29;;;;;;;5.10;1.23;;;;;;;;;;4942747;28;20444;-74
2023/07/16 13:18:54;;;;;;;3.90;0.80;;;;;;;;;;4939379;28;20489;-74
2023/07/16 13:21:19;;;;;;;5.72;0.90;;;;;;;;;;4942384;28;20195;-75
2023/07/16 13:23:44;;;;;;;3.50;1.08;;;;;;;;;;4939711;28;20647;-74
2023/07/16 13:26:09;;;;;;;5.35;0.98;;;;;;;;;;4938879;28;20221;-73
2023/07/16 13:28:35;;;;;;;2.50;1.00;;;;;;;;;;4939962;28;20220;-74
2023/07/16 13:31:00;;;;;;;3.38;0.88;;;;;;;;;;4938381;28;20474;-73
2023/07/16 13:33:25;;;;;;;3.70;1.33;;;;;;;;;;4938122;28;20402;-73
2023/07/16 13:35:51;;;;;;;6.75;1.23;;;;;;;;;;4940427;28;20195;-73
2023/07/16 13:38:16;;;;;;;5.60;1.38;;;;;;;;;;4939623;28;20312;-73
2023/07/16 13:40:41;;;;;;;3.38;1.08;;;;;;;;;;4936371;28;20188;-74
2023/07/16 13:43:06;;;;;;;3.30;1.13;;;;;;;;;;4937635;28;20901;-74
2023/07/16 13:45:33;;;;;;;6.73;1.03;;;;;;;;;;4937594;28;20193;-73
2023/07/16 13:47:58;;;;;;;3.25;0.85;;;;;;;;;;4939575;28;20474;-74
2023/07/16 13:50:24;;;;;;;4.13;1.10;;;;;;;;;;4937303;28;20254;-74
2023/07/16 13:52:49;;;;;;;2.75;0.82;;;;;;;;;;4935894;28;20446;-74
2023/07/16 13:55:14;;;;;;;2.17;0.68;;;;;;;;;;4944414;28;20840;-75
2023/07/16 13:57:40;;;;;;;2.92;0.95;;;;;;;;;;4938969;28;20593;-73
2023/07/16 14:00:09;;;;;;;3.70;0.85;;;;;;;;;;4942503;28;20219;-73
2023/07/16 14:02:34;;;;;;;3.10;1.35;;;;;;;;;;4937575;28;20271;-74
2023/07/16 14:04:59;;;;;;;2.83;1.00;;;;;;;;;;4937915;28;20191;-73
2023/07/16 14:07:25;;;;;;;3.28;1.50;;;;;;;;;;4937875;28;20564;-73
2023/07/16 14:09:50;;;;;;;3.50;0.95;;;;;;;;;;4938477;28;20181;-74
2023/07/16 14:12:15;;;;;;;3.03;0.90;;;;;;;;;;4937752;28;20185;-73
2023/07/16 14:14:40;;;;;;;2.83;1.00;;;;;;;;;;4936476;28;20216;-74
2023/07/16 14:17:06;;;;;;;3.60;1.17;;;;;;;;;;4942808;28;20347;-73
2023/07/16 14:19:31;;;;;;;5.27;1.83;;;;;;;;;;4937805;28;20431;-74
2023/07/16 14:21:56;;;;;;;4.38;1.08;;;;;;;;;;4937050;28;21167;-73
2023/07/16 14:24:21;;;;;;;2.85;1.25;;;;;;;;;;4937685;28;20192;-74
2023/07/16 14:26:47;;;;;;;2.88;0.90;;;;;;;;;;4938574;28;20224;-73
2023/07/16 14:29:12;;;;;;;5.60;1.42;;;;;;;;;;4942188;28;21021;-74
2023/07/16 14:31:37;;;;;;;3.33;2.00;;;;;;;;;;4938241;28;20180;-73